QFA115 YPPH-YSHK
Flight info
| Callsign | QFA115 |
|---|---|
| Flight time | N/A |
| Altitude | 20000 |
| Route | AVNEX H16 GEL W294 VIBID |
| Aircraft | DH8D/M-SDE2E3FGRY/H |
Departure
| Time | N/A |
|---|---|
| Airport | Perth International Airport (YPPH) |
Arrival
| Time | 2026-05-05 11:05 |
|---|---|
| Airport | Shark Bay Airport (YSHK) |
| Time | Latitude | Longitude | Altitude | Speed | Heading |
|---|---|---|---|---|---|
| 2026-05-05 10:23 | -28.22157 | 114.47805 | 20199 ft | 339 kts | 340° |
| 2026-05-05 10:23 | -28.19919 | 114.46921 | 20199 ft | 339 kts | 340° |
| 2026-05-05 10:24 | -28.17674 | 114.46033 | 20203 ft | 340 kts | 340° |
| 2026-05-05 10:24 | -28.15428 | 114.45145 | 20204 ft | 341 kts | 340° |
| 2026-05-05 10:24 | -28.13196 | 114.44263 | 20200 ft | 341 kts | 340° |
| 2026-05-05 10:24 | -28.10956 | 114.43378 | 20196 ft | 342 kts | 340° |
| 2026-05-05 10:25 | -28.08679 | 114.42479 | 20191 ft | 343 kts | 340° |
| 2026-05-05 10:25 | -28.06429 | 114.41591 | 20191 ft | 343 kts | 340° |
| 2026-05-05 10:25 | -28.04174 | 114.40701 | 20195 ft | 344 kts | 340° |
| 2026-05-05 10:25 | -28.01914 | 114.39810 | 20199 ft | 344 kts | 340° |
| 2026-05-05 10:26 | -27.99650 | 114.38917 | 20203 ft | 345 kts | 340° |
| 2026-05-05 10:26 | -27.97384 | 114.38024 | 20196 ft | 345 kts | 340° |
| 2026-05-05 10:26 | -27.95092 | 114.37122 | 20197 ft | 345 kts | 340° |
| 2026-05-05 10:26 | -27.92824 | 114.36228 | 20193 ft | 345 kts | 340° |
| 2026-05-05 10:27 | -27.90556 | 114.35335 | 20190 ft | 345 kts | 340° |
| 2026-05-05 10:27 | -27.88296 | 114.34447 | 20188 ft | 345 kts | 341° |
| 2026-05-05 10:27 | -27.86043 | 114.33560 | 20186 ft | 345 kts | 341° |
| 2026-05-05 10:27 | -27.83742 | 114.32655 | 20182 ft | 345 kts | 340° |
| 2026-05-05 10:28 | -27.81490 | 114.31771 | 20186 ft | 345 kts | 341° |
| 2026-05-05 10:28 | -27.79210 | 114.30875 | 20194 ft | 345 kts | 341° |
| 2026-05-05 10:28 | -27.76938 | 114.29984 | 20193 ft | 345 kts | 341° |
| 2026-05-05 10:28 | -27.74667 | 114.29093 | 20193 ft | 346 kts | 340° |
| 2026-05-05 10:29 | -27.73187 | 114.28513 | 20181 ft | 345 kts | 340° |
| 2026-05-05 10:29 | -27.70902 | 114.27616 | 20180 ft | 345 kts | 340° |
| 2026-05-05 10:29 | -27.68609 | 114.26718 | 20182 ft | 345 kts | 340° |
| 2026-05-05 10:29 | -27.66774 | 114.26000 | 20185 ft | 345 kts | 340° |
| 2026-05-05 10:30 | -27.64775 | 114.25215 | 20176 ft | 344 kts | 340° |
| 2026-05-05 10:30 | -27.62533 | 114.24338 | 20169 ft | 344 kts | 340° |
| 2026-05-05 10:30 | -27.60247 | 114.23444 | 20169 ft | 344 kts | 340° |
| 2026-05-05 10:30 | -27.60229 | 114.23437 | 20170 ft | 344 kts | 340° |
| 2026-05-05 10:31 | -27.58075 | 114.22594 | 20167 ft | 345 kts | 340° |
| 2026-05-05 10:31 | -27.56114 | 114.21828 | 20170 ft | 345 kts | 340° |
| 2026-05-05 10:31 | -27.53823 | 114.20933 | 20170 ft | 345 kts | 340° |
| 2026-05-05 10:31 | -27.51553 | 114.20046 | 20174 ft | 345 kts | 340° |
| 2026-05-05 10:32 | -27.49273 | 114.19156 | 20177 ft | 345 kts | 340° |
| 2026-05-05 10:32 | -27.46995 | 114.18267 | 20170 ft | 345 kts | 340° |
| 2026-05-05 10:32 | -27.45386 | 114.17639 | 20166 ft | 345 kts | 340° |
| 2026-05-05 10:32 | -27.43122 | 114.16756 | 20170 ft | 345 kts | 340° |
| 2026-05-05 10:33 | -27.40848 | 114.15869 | 20171 ft | 345 kts | 340° |
| 2026-05-05 10:33 | -27.38568 | 114.14981 | 20173 ft | 346 kts | 340° |
| 2026-05-05 10:33 | -27.36284 | 114.14092 | 20172 ft | 346 kts | 340° |
| 2026-05-05 10:33 | -27.34005 | 114.13204 | 20174 ft | 347 kts | 340° |
| 2026-05-05 10:34 | -27.31727 | 114.12318 | 20173 ft | 347 kts | 340° |
| 2026-05-05 10:34 | -27.29433 | 114.11426 | 20169 ft | 347 kts | 339° |
| 2026-05-05 10:34 | -27.27164 | 114.10544 | 20168 ft | 347 kts | 339° |
| 2026-05-05 10:34 | -27.24860 | 114.09648 | 20169 ft | 347 kts | 339° |
| 2026-05-05 10:35 | -27.22599 | 114.08769 | 20168 ft | 347 kts | 339° |
| 2026-05-05 10:35 | -27.20284 | 114.07870 | 20168 ft | 347 kts | 339° |
| 2026-05-05 10:35 | -27.18021 | 114.06992 | 20170 ft | 347 kts | 339° |
| 2026-05-05 10:35 | -27.15707 | 114.06094 | 20170 ft | 347 kts | 339° |
| 2026-05-05 10:36 | -27.13437 | 114.05214 | 20166 ft | 346 kts | 340° |
| 2026-05-05 10:36 | -27.11175 | 114.04336 | 20166 ft | 346 kts | 339° |
| 2026-05-05 10:36 | -27.08873 | 114.03445 | 20165 ft | 347 kts | 339° |
| 2026-05-05 10:36 | -27.06600 | 114.02565 | 20165 ft | 347 kts | 340° |
| 2026-05-05 10:37 | -27.04300 | 114.01675 | 20011 ft | 349 kts | 339° |
| 2026-05-05 10:37 | -27.02012 | 114.00786 | 19527 ft | 350 kts | 340° |
| 2026-05-05 10:37 | -26.99715 | 113.99895 | 19031 ft | 352 kts | 339° |
| 2026-05-05 10:37 | -26.97374 | 113.98988 | 18531 ft | 352 kts | 340° |
| 2026-05-05 10:38 | -26.95055 | 113.98090 | 18038 ft | 353 kts | 340° |
| 2026-05-05 10:38 | -26.92745 | 113.97196 | 17550 ft | 353 kts | 340° |
| 2026-05-05 10:38 | -26.90428 | 113.96300 | 17063 ft | 353 kts | 340° |
| 2026-05-05 10:38 | -26.88098 | 113.95400 | 16573 ft | 352 kts | 340° |
| 2026-05-05 10:39 | -26.85757 | 113.94495 | 16079 ft | 351 kts | 340° |
| 2026-05-05 10:39 | -26.83457 | 113.93607 | 15632 ft | 350 kts | 340° |
| 2026-05-05 10:39 | -26.81152 | 113.92718 | 15192 ft | 348 kts | 340° |
| 2026-05-05 10:39 | -26.78861 | 113.91833 | 14746 ft | 346 kts | 341° |
| 2026-05-05 10:40 | -26.77265 | 113.91218 | 14440 ft | 344 kts | 341° |
| 2026-05-05 10:40 | -26.75143 | 113.90400 | 14025 ft | 341 kts | 341° |
| 2026-05-05 10:40 | -26.72896 | 113.89535 | 13585 ft | 340 kts | 341° |
| 2026-05-05 10:40 | -26.70658 | 113.88673 | 13143 ft | 338 kts | 341° |
| 2026-05-05 10:41 | -26.68438 | 113.87818 | 12694 ft | 330 kts | 341° |
| 2026-05-05 10:41 | -26.66315 | 113.86996 | 12241 ft | 318 kts | 341° |
| 2026-05-05 10:41 | -26.64247 | 113.86198 | 11786 ft | 307 kts | 341° |
| 2026-05-05 10:41 | -26.62270 | 113.85438 | 11340 ft | 298 kts | 342° |
| 2026-05-05 10:42 | -26.59084 | 113.84222 | 10633 ft | 298 kts | 342° |
| 2026-05-05 10:42 | -26.57120 | 113.83472 | 10197 ft | 299 kts | 342° |
| 2026-05-05 10:42 | -26.55169 | 113.82725 | 9766 ft | 299 kts | 342° |
| 2026-05-05 10:43 | -26.53180 | 113.81964 | 9327 ft | 299 kts | 342° |
| 2026-05-05 10:43 | -26.51217 | 113.81213 | 8895 ft | 298 kts | 342° |
| 2026-05-05 10:43 | -26.49250 | 113.80459 | 8459 ft | 298 kts | 342° |
| 2026-05-05 10:43 | -26.47334 | 113.79722 | 8015 ft | 289 kts | 342° |
| 2026-05-05 10:44 | -26.45438 | 113.78992 | 7562 ft | 281 kts | 342° |
| 2026-05-05 10:44 | -26.43620 | 113.78294 | 7117 ft | 274 kts | 342° |
| 2026-05-05 10:44 | -26.41843 | 113.77612 | 6665 ft | 260 kts | 343° |
| 2026-05-05 10:44 | -26.40218 | 113.76986 | 6217 ft | 240 kts | 343° |
| 2026-05-05 10:45 | -26.38680 | 113.76395 | 5812 ft | 222 kts | 343° |
| 2026-05-05 10:45 | -26.37240 | 113.75850 | 5449 ft | 228 kts | 344° |
| 2026-05-05 10:45 | -26.35668 | 113.75268 | 5109 ft | 241 kts | 344° |
| 2026-05-05 10:45 | -26.34050 | 113.74658 | 4766 ft | 252 kts | 343° |
| 2026-05-05 10:46 | -26.32376 | 113.74022 | 4415 ft | 255 kts | 344° |
| 2026-05-05 10:46 | -26.30682 | 113.73372 | 4050 ft | 254 kts | 344° |
| 2026-05-05 10:46 | -26.29015 | 113.72732 | 3689 ft | 254 kts | 344° |
| 2026-05-05 10:46 | -26.27360 | 113.72099 | 3348 ft | 252 kts | 344° |
| 2026-05-05 10:47 | -26.25717 | 113.71470 | 3088 ft | 247 kts | 344° |
| 2026-05-05 10:47 | -26.24092 | 113.70847 | 2835 ft | 242 kts | 345° |
| 2026-05-05 10:47 | -26.22506 | 113.70242 | 2585 ft | 238 kts | 345° |
| 2026-05-05 10:47 | -26.20957 | 113.69650 | 2337 ft | 235 kts | 345° |
| 2026-05-05 10:48 | -26.19377 | 113.69055 | 2121 ft | 241 kts | 345° |
| 2026-05-05 10:48 | -26.17807 | 113.68456 | 2030 ft | 232 kts | 345° |
| 2026-05-05 10:48 | -26.16324 | 113.67889 | 1994 ft | 221 kts | 345° |
| 2026-05-05 10:48 | -26.14907 | 113.67345 | 1978 ft | 213 kts | 345° |
| 2026-05-05 10:49 | -26.13462 | 113.66808 | 1992 ft | 223 kts | 346° |
| 2026-05-05 10:49 | -26.11950 | 113.66245 | 1996 ft | 233 kts | 345° |
| 2026-05-05 10:49 | -26.10359 | 113.65646 | 1996 ft | 243 kts | 345° |
| 2026-05-05 10:49 | -26.08740 | 113.65034 | 1994 ft | 251 kts | 345° |
| 2026-05-05 10:50 | -26.07067 | 113.64391 | 1991 ft | 257 kts | 343° |
| 2026-05-05 10:50 | -26.05582 | 113.63303 | 1956 ft | 252 kts | 310° |
| 2026-05-05 10:50 | -26.04789 | 113.61691 | 1939 ft | 222 kts | 306° |
| 2026-05-05 10:50 | -26.03715 | 113.60571 | 1535 ft | 202 kts | 332° |
| 2026-05-05 10:51 | -26.02540 | 113.59950 | 1359 ft | 176 kts | 349° |
| 2026-05-05 10:51 | -26.01461 | 113.59631 | 1390 ft | 135 kts | 356° |
| 2026-05-05 10:51 | -26.00546 | 113.59373 | 1392 ft | 137 kts | 353° |
| 2026-05-05 10:51 | -25.99617 | 113.59087 | 1409 ft | 140 kts | 353° |
| 2026-05-05 10:52 | -25.98642 | 113.58814 | 1388 ft | 147 kts | 354° |
| 2026-05-05 10:52 | -25.97614 | 113.58546 | 1376 ft | 156 kts | 353° |
| 2026-05-05 10:52 | -25.96562 | 113.58208 | 1419 ft | 158 kts | 350° |
| 2026-05-05 10:52 | -25.95488 | 113.57804 | 1363 ft | 164 kts | 348° |
| 2026-05-05 10:53 | -25.94390 | 113.57620 | 906 ft | 162 kts | 5° |
| 2026-05-05 10:53 | -25.93316 | 113.57616 | 608 ft | 147 kts | 7° |
| 2026-05-05 10:53 | -25.92318 | 113.57639 | 399 ft | 140 kts | 7° |
| 2026-05-05 10:53 | -25.91344 | 113.57638 | 264 ft | 138 kts | 5° |
| 2026-05-05 10:54 | -25.90387 | 113.57609 | 158 ft | 134 kts | 6° |
| 2026-05-05 10:54 | -25.89494 | 113.57593 | 290 ft | 125 kts | 8° |
| 2026-05-05 10:54 | -25.88603 | 113.57635 | 541 ft | 137 kts | 11° |
| 2026-05-05 10:54 | -25.87549 | 113.57811 | 568 ft | 165 kts | 21° |
| 2026-05-05 10:55 | -25.86584 | 113.58415 | 1021 ft | 151 kts | 48° |
| 2026-05-05 10:55 | -25.85575 | 113.58875 | 1207 ft | 176 kts | 357° |
| 2026-05-05 10:55 | -25.84531 | 113.58136 | 1562 ft | 187 kts | 300° |
| 2026-05-05 10:55 | -25.84325 | 113.57347 | 1771 ft | 187 kts | 268° |
| 2026-05-05 10:56 | -25.84836 | 113.56119 | 2130 ft | 174 kts | 209° |
| 2026-05-05 10:56 | -25.85828 | 113.55875 | 2459 ft | 155 kts | 159° |
| 2026-05-05 10:56 | -25.86921 | 113.56303 | 2505 ft | 179 kts | 155° |
| 2026-05-05 10:56 | -25.88158 | 113.56697 | 2469 ft | 188 kts | 162° |
| 2026-05-05 10:57 | -25.89475 | 113.56975 | 2429 ft | 196 kts | 166° |
| 2026-05-05 10:57 | -25.90856 | 113.57175 | 2389 ft | 203 kts | 169° |
| 2026-05-05 10:57 | -25.91732 | 113.57271 | 2365 ft | 208 kts | 169° |
| 2026-05-05 10:57 | -25.93238 | 113.57397 | 2326 ft | 214 kts | 171° |
| 2026-05-05 10:58 | -25.94772 | 113.57485 | 2282 ft | 221 kts | 172° |
| 2026-05-05 10:58 | -25.96326 | 113.57547 | 2240 ft | 227 kts | 173° |
| 2026-05-05 10:58 | -25.97922 | 113.57592 | 2199 ft | 232 kts | 173° |
| 2026-05-05 10:58 | -25.99578 | 113.57625 | 2158 ft | 237 kts | 174° |
| 2026-05-05 10:59 | -26.01216 | 113.57501 | 2089 ft | 238 kts | 190° |
| 2026-05-05 10:59 | -26.02611 | 113.56596 | 2011 ft | 232 kts | 223° |
| 2026-05-05 10:59 | -26.03365 | 113.55038 | 1984 ft | 224 kts | 258° |
| 2026-05-05 10:59 | -26.03255 | 113.53391 | 1966 ft | 209 kts | 294° |
| 2026-05-05 11:00 | -26.02400 | 113.52215 | 1954 ft | 185 kts | 335° |
| 2026-05-05 11:00 | -26.01265 | 113.51949 | 1956 ft | 158 kts | 20° |
| 2026-05-05 11:00 | -26.00272 | 113.52368 | 2193 ft | 147 kts | 32° |
| 2026-05-05 11:00 | -25.99346 | 113.52885 | 2425 ft | 144 kts | 37° |
| 2026-05-05 11:01 | -25.98443 | 113.53390 | 2531 ft | 157 kts | 32° |
| 2026-05-05 11:01 | -25.97467 | 113.53938 | 2724 ft | 156 kts | 38° |
| 2026-05-05 11:01 | -25.96497 | 113.54627 | 2504 ft | 172 kts | 38° |
| 2026-05-05 11:01 | -25.95510 | 113.55273 | 2302 ft | 155 kts | 39° |
| 2026-05-05 11:02 | -25.94660 | 113.56035 | 1775 ft | 159 kts | 43° |
| 2026-05-05 11:02 | -25.93780 | 113.56744 | 1397 ft | 156 kts | 39° |
| 2026-05-05 11:02 | -25.92852 | 113.57430 | 838 ft | 162 kts | 34° |
| 2026-05-05 11:02 | -25.91748 | 113.57654 | 352 ft | 169 kts | 359° |
| 2026-05-05 11:03 | -25.90662 | 113.57622 | 202 ft | 142 kts | 7° |
| 2026-05-05 11:03 | -25.89763 | 113.57579 | 207 ft | 123 kts | 5° |
| 2026-05-05 11:03 | -25.88902 | 113.57558 | 550 ft | 124 kts | 8° |
| 2026-05-05 11:03 | -25.87979 | 113.57610 | 776 ft | 144 kts | 11° |
| 2026-05-05 11:04 | -25.86914 | 113.57690 | 932 ft | 170 kts | 10° |
| 2026-05-05 11:04 | -25.85615 | 113.57893 | 1017 ft | 192 kts | 17° |
| 2026-05-05 11:04 | -25.84338 | 113.58209 | 1230 ft | 214 kts | 18° |
| 2026-05-05 11:04 | -25.84124 | 113.58261 | 967 ft | 233 kts | 17° |
| 2026-05-05 11:05 | -25.83650 | 113.58341 | 136 ft | 0 kts | 10° |